createdAt,value
2024-03-07T00:02:20.108Z,2.49
2024-03-07T00:04:50.636Z,2.45
2024-03-07T00:07:22.122Z,2.41
2024-03-07T00:09:54.951Z,2.35
2024-03-07T00:12:25.482Z,2.30
2024-03-07T00:14:56.290Z,2.27
2024-03-07T00:17:27.014Z,2.25
2024-03-07T00:19:57.466Z,2.24
2024-03-07T00:22:30.910Z,2.26
2024-03-07T00:25:01.622Z,2.28
2024-03-07T00:27:32.207Z,2.29
2024-03-07T00:30:03.699Z,2.29
2024-03-07T00:32:37.137Z,2.29
2024-03-07T00:35:10.337Z,2.26
2024-03-07T00:37:40.977Z,2.22
2024-03-07T00:40:13.321Z,2.18
2024-03-07T00:42:44.224Z,2.17
2024-03-07T00:45:14.924Z,2.16
2024-03-07T00:47:45.583Z,2.15
2024-03-07T00:50:16.488Z,2.13
2024-03-07T00:52:47.084Z,2.12
2024-03-07T00:55:17.779Z,2.11
2024-03-07T00:57:48.235Z,2.12
2024-03-07T01:00:22.689Z,2.11
2024-03-07T01:02:54.535Z,2.10
2024-03-07T01:05:25.287Z,2.11
2024-03-07T01:07:56.955Z,2.13
2024-03-07T01:10:27.606Z,2.14
2024-03-07T01:13:02.250Z,2.15
2024-03-07T01:15:33.986Z,2.22
2024-03-07T01:18:05.060Z,2.27
2024-03-07T01:20:36.763Z,2.32
2024-03-07T01:23:08.885Z,2.37
2024-03-07T01:25:40.161Z,2.41
2024-03-07T01:28:13.488Z,2.44
2024-03-07T01:30:43.805Z,2.47
2024-03-07T01:33:14.369Z,2.52
2024-03-07T01:35:45.265Z,2.56
2024-03-07T01:38:15.938Z,2.58
2024-03-07T01:40:47.401Z,2.62
2024-03-07T01:43:18.046Z,2.70
2024-03-07T01:45:49.541Z,2.71
2024-03-07T01:48:27.745Z,2.76
2024-03-07T01:50:59.112Z,2.80
2024-03-07T01:53:31.127Z,2.84
2024-03-07T01:56:03.726Z,2.86
2024-03-07T01:58:35.315Z,2.87
2024-03-07T02:01:06.071Z,2.86
2024-03-07T02:03:37.882Z,2.88
2024-03-07T02:06:08.846Z,2.91
2024-03-07T02:08:39.263Z,2.93
2024-03-07T02:11:10.771Z,2.96
2024-03-07T02:13:41.365Z,2.99
2024-03-07T02:16:11.768Z,3.01
2024-03-07T02:18:42.510Z,3.03
2024-03-07T02:21:12.939Z,3.05
2024-03-07T02:23:43.383Z,3.05
2024-03-07T02:26:14.240Z,3.05
2024-03-07T02:28:45.136Z,3.05
2024-03-07T02:31:15.509Z,3.09
2024-03-07T02:33:46.028Z,3.13
2024-03-07T02:36:16.748Z,3.17
2024-03-07T02:38:47.257Z,3.21
2024-03-07T02:41:17.786Z,3.24
2024-03-07T02:43:48.507Z,3.27
2024-03-07T02:46:19.020Z,3.31
2024-03-07T02:48:49.685Z,3.34
2024-03-07T02:51:20.170Z,3.37
2024-03-07T02:53:51.039Z,3.41
2024-03-07T02:56:21.561Z,3.43
2024-03-07T02:58:52.459Z,3.45
2024-03-07T03:01:23.149Z,3.46
2024-03-07T03:03:53.849Z,3.45
2024-03-07T03:06:24.271Z,3.45
2024-03-07T03:08:55.377Z,3.43
2024-03-07T03:11:26.951Z,3.42
2024-03-07T03:13:57.577Z,3.41
2024-03-07T03:16:43.041Z,3.40
2024-03-07T03:19:18.248Z,3.39
2024-03-07T03:21:48.665Z,3.39
2024-03-07T03:24:19.133Z,3.41
2024-03-07T03:26:49.637Z,3.44
2024-03-07T03:29:20.431Z,3.46
2024-03-07T03:31:50.916Z,3.50
2024-03-07T03:34:22.183Z,3.56
2024-03-07T03:36:52.599Z,3.60
2024-03-07T03:39:23.063Z,3.62
2024-03-07T03:41:53.563Z,3.65
2024-03-07T03:44:24.038Z,3.69
2024-03-07T03:46:54.516Z,3.73
2024-03-07T03:49:25.028Z,3.78
2024-03-07T03:51:55.923Z,3.82
2024-03-07T03:54:26.359Z,3.88
2024-03-07T03:56:56.802Z,3.90
2024-03-07T03:59:27.220Z,3.93
2024-03-07T04:01:57.605Z,3.94
2024-03-07T04:04:28.422Z,3.96
2024-03-07T04:06:58.748Z,3.99
2024-03-07T04:09:29.688Z,4.00
2024-03-07T04:12:00.666Z,4.03
2024-03-07T04:14:34.556Z,4.07
2024-03-07T04:17:04.982Z,4.09
2024-03-07T04:19:35.355Z,4.12
2024-03-07T04:22:06.289Z,4.17
2024-03-07T04:24:36.907Z,4.22
2024-03-07T04:27:08.375Z,4.25
2024-03-07T04:29:38.844Z,4.30
2024-03-07T04:32:10.364Z,4.32
2024-03-07T04:34:40.726Z,4.36
2024-03-07T04:37:11.162Z,4.37
2024-03-07T04:39:41.663Z,4.38
2024-03-07T04:42:12.221Z,4.38
2024-03-07T04:44:42.664Z,4.38
2024-03-07T04:47:13.272Z,4.38
2024-03-07T04:49:44.791Z,4.41
2024-03-07T04:52:15.710Z,4.44
2024-03-07T04:54:46.107Z,4.46
2024-03-07T04:57:16.540Z,4.47
2024-03-07T04:59:46.942Z,4.47
2024-03-07T05:02:17.408Z,4.47
2024-03-07T05:04:50.800Z,4.44
2024-03-07T05:07:21.299Z,4.45
2024-03-07T05:09:51.635Z,4.43
2024-03-07T05:12:21.987Z,4.42
2024-03-07T05:14:52.415Z,4.42
2024-03-07T05:17:23.276Z,4.41
2024-03-07T05:19:53.697Z,4.43
2024-03-07T05:22:26.864Z,4.46
2024-03-07T05:24:58.100Z,4.48
2024-03-07T05:27:31.234Z,4.50
2024-03-07T05:30:01.680Z,4.53
2024-03-07T05:32:32.589Z,4.51
2024-03-07T05:35:03.394Z,4.49
2024-03-07T05:37:34.068Z,4.46
2024-03-07T05:40:05.365Z,4.44
2024-03-07T05:42:35.914Z,4.44
2024-03-07T05:45:09.084Z,4.45
2024-03-07T05:47:39.722Z,4.48
2024-03-07T05:50:11.911Z,4.52
2024-03-07T05:52:42.377Z,4.55
2024-03-07T05:55:13.382Z,4.61
2024-03-07T05:57:45.677Z,4.66
2024-03-07T06:00:28.779Z,4.69
2024-03-07T06:02:59.955Z,4.72
2024-03-07T06:05:30.473Z,4.75
2024-03-07T06:08:01.023Z,4.77
2024-03-07T06:10:31.453Z,4.79
2024-03-07T06:13:10.363Z,4.79
2024-03-07T06:15:44.813Z,4.81
2024-03-07T06:18:15.862Z,4.83
2024-03-07T06:20:47.176Z,4.84
2024-03-07T06:23:18.351Z,4.89
2024-03-07T06:25:51.660Z,4.91
2024-03-07T06:28:22.115Z,4.93
2024-03-07T06:30:52.693Z,4.93
2024-03-07T06:33:25.944Z,4.94
2024-03-07T06:35:58.089Z,4.97
2024-03-07T06:38:28.904Z,5.00
2024-03-07T06:40:59.578Z,5.02
2024-03-07T06:43:30.584Z,5.07
2024-03-07T06:46:01.026Z,5.08
2024-03-07T06:48:31.480Z,5.10
2024-03-07T06:51:02.230Z,5.13
2024-03-07T06:53:32.892Z,5.15
2024-03-07T06:56:03.384Z,5.19
2024-03-07T06:58:34.196Z,5.23
2024-03-07T07:01:08.396Z,5.28
2024-03-07T07:03:39.159Z,5.31
2024-03-07T07:06:09.641Z,5.34
2024-03-07T07:08:40.583Z,5.37
2024-03-07T07:11:13.484Z,5.39
2024-03-07T07:13:44.229Z,5.43
2024-03-07T07:16:14.562Z,5.47
2024-03-07T07:18:44.982Z,5.51
2024-03-07T07:21:16.980Z,5.56
2024-03-07T07:23:47.541Z,5.58
2024-03-07T07:26:17.984Z,5.59
2024-03-07T07:28:48.396Z,5.59
2024-03-07T07:31:18.693Z,5.62
2024-03-07T07:33:49.029Z,5.64
2024-03-07T07:36:20.018Z,5.70
2024-03-07T07:38:50.423Z,5.74
2024-03-07T07:41:20.840Z,5.77
2024-03-07T07:43:51.795Z,5.81
2024-03-07T07:46:22.187Z,5.85
2024-03-07T07:48:52.545Z,5.87
2024-03-07T07:51:22.988Z,5.92
2024-03-07T07:53:55.407Z,6.04
2024-03-07T07:56:29.718Z,6.20
2024-03-07T07:59:00.254Z,6.24
2024-03-07T08:01:30.688Z,6.19
2024-03-07T08:04:01.113Z,6.13
2024-03-07T08:06:32.287Z,6.10
2024-03-07T08:09:02.896Z,6.09
2024-03-07T08:11:33.775Z,6.18
2024-03-07T08:14:04.381Z,6.27
2024-03-07T08:16:34.855Z,6.33
2024-03-07T08:19:05.473Z,6.38
2024-03-07T08:21:35.872Z,6.37
2024-03-07T08:24:11.954Z,6.34
2024-03-07T08:26:45.564Z,6.34
2024-03-07T08:29:15.993Z,6.39
2024-03-07T08:31:46.344Z,6.44
2024-03-07T08:34:16.712Z,6.48
2024-03-07T08:36:48.348Z,6.50
2024-03-07T08:39:20.547Z,6.48
2024-03-07T08:41:50.986Z,6.42
2024-03-07T08:44:21.618Z,6.45
2024-03-07T08:46:52.186Z,6.53
2024-03-07T08:49:23.657Z,6.53
2024-03-07T08:51:54.083Z,6.55
2024-03-07T08:54:24.843Z,6.57
2024-03-07T08:56:55.572Z,6.57
2024-03-07T08:59:26.151Z,6.55
2024-03-07T09:01:56.659Z,6.51
2024-03-07T09:04:27.185Z,6.49
2024-03-07T09:06:57.875Z,6.52
2024-03-07T09:09:28.285Z,6.60
2024-03-07T09:11:58.834Z,6.66
2024-03-07T09:14:29.372Z,6.67
2024-03-07T09:17:00.087Z,6.62
2024-03-07T09:19:30.592Z,6.51
2024-03-07T09:22:01.429Z,6.42
2024-03-07T09:24:32.427Z,6.42
2024-03-07T09:27:03.627Z,6.42
2024-03-07T09:29:34.595Z,6.50
2024-03-07T09:32:09.212Z,6.55
2024-03-07T09:34:40.198Z,6.60
2024-03-07T09:37:11.506Z,6.65
2024-03-07T09:39:41.974Z,6.74
2024-03-07T09:42:14.279Z,6.79
2024-03-07T09:44:47.918Z,6.81
2024-03-07T09:47:19.743Z,6.83
2024-03-07T09:49:50.454Z,6.80
2024-03-07T09:52:22.142Z,6.80
2024-03-07T09:54:52.476Z,6.84
2024-03-07T09:57:24.884Z,6.85
2024-03-07T09:59:57.331Z,6.85
2024-03-07T10:02:28.901Z,6.91
2024-03-07T10:05:00.887Z,7.07
2024-03-07T10:07:32.632Z,7.19
2024-03-07T10:10:11.041Z,7.31
2024-03-07T10:12:42.066Z,7.45
2024-03-07T10:15:14.980Z,7.63
2024-03-07T10:17:47.799Z,7.85
2024-03-07T10:20:24.126Z,8.01
2024-03-07T10:22:55.520Z,8.11
2024-03-07T10:25:28.498Z,8.18
2024-03-07T10:28:00.375Z,8.26
2024-03-07T10:30:30.948Z,8.34
2024-03-07T10:33:03.080Z,8.44
2024-03-07T10:35:33.956Z,8.48
2024-03-07T10:38:08.475Z,8.47
2024-03-07T10:40:42.453Z,8.53
2024-03-07T10:43:16.113Z,8.61
2024-03-07T10:45:49.067Z,8.60
2024-03-07T10:48:25.344Z,8.59
2024-03-07T10:51:07.269Z,8.73
2024-03-07T10:53:43.925Z,8.93
2024-03-07T10:56:26.681Z,9.12
2024-03-07T10:59:10.445Z,9.19
2024-03-07T11:01:51.409Z,9.09
2024-03-07T11:04:23.193Z,9.00
2024-03-07T11:06:55.080Z,9.09
2024-03-07T11:09:30.057Z,9.40
2024-03-07T11:12:04.686Z,9.69
2024-03-07T11:14:38.284Z,9.84
2024-03-07T11:17:10.691Z,9.88
2024-03-07T11:19:41.183Z,9.85
2024-03-07T11:22:16.960Z,9.81
2024-03-07T11:25:02.096Z,9.81
2024-03-07T11:27:34.153Z,9.84
2024-03-07T11:30:12.849Z,9.88
2024-03-07T11:32:45.883Z,10.07
2024-03-07T11:35:16.869Z,10.16
2024-03-07T11:37:50.345Z,10.04
2024-03-07T11:40:47.968Z,9.80
2024-03-07T11:43:16.945Z,9.44
2024-03-07T11:45:53.386Z,9.22
2024-03-07T11:48:25.168Z,9.12
2024-03-07T11:50:57.525Z,9.02
2024-03-07T11:53:28.912Z,8.88
2024-03-07T11:55:59.396Z,8.79
2024-03-07T11:58:33.159Z,8.83
2024-03-07T12:01:06.799Z,9.02
2024-03-07T12:03:37.251Z,9.30
2024-03-07T12:06:11.029Z,9.59
2024-03-07T12:08:43.279Z,9.78
2024-03-07T12:11:17.006Z,9.80
2024-03-07T12:13:48.729Z,9.72
2024-03-07T12:16:19.303Z,9.62
2024-03-07T12:18:50.293Z,9.50
2024-03-07T12:21:22.172Z,9.39
2024-03-07T12:23:52.953Z,9.39
2024-03-07T12:26:26.722Z,9.40
2024-03-07T12:28:58.526Z,9.42
2024-03-07T12:31:28.944Z,9.43
2024-03-07T12:33:59.714Z,9.46
2024-03-07T12:36:35.756Z,9.51
2024-03-07T12:39:20.408Z,9.43
2024-03-07T12:41:53.962Z,9.34
2024-03-07T12:44:24.828Z,9.28
2024-03-07T12:46:57.076Z,9.24
2024-03-07T12:49:28.434Z,9.32
2024-03-07T12:52:00.386Z,9.50
2024-03-07T12:54:31.110Z,9.60
2024-03-07T12:57:01.750Z,9.63
2024-03-07T12:59:32.393Z,9.65
2024-03-07T13:02:03.947Z,9.69
2024-03-07T13:04:34.594Z,9.77
2024-03-07T13:07:05.469Z,9.87
2024-03-07T13:09:36.367Z,10.04
2024-03-07T13:12:10.723Z,10.21
2024-03-07T13:14:41.522Z,10.28
2024-03-07T13:17:15.349Z,10.24
2024-03-07T13:19:50.980Z,10.16
2024-03-07T13:22:21.392Z,10.11
2024-03-07T13:24:51.849Z,10.04
2024-03-07T13:27:29.215Z,10.02
2024-03-07T13:29:59.822Z,10.08
2024-03-07T13:32:30.610Z,10.16
2024-03-07T13:35:02.629Z,10.29
2024-03-07T13:37:35.606Z,10.34
2024-03-07T13:40:24.176Z,10.29
2024-03-07T13:42:57.103Z,10.28
2024-03-07T13:45:29.623Z,10.29
2024-03-07T13:48:01.145Z,10.22
2024-03-07T13:50:47.280Z,10.15
2024-03-07T13:53:34.413Z,10.13
2024-03-07T13:56:31.458Z,10.19
2024-03-07T13:59:32.915Z,10.29
2024-03-07T14:02:24.765Z,10.18
2024-03-07T14:05:26.299Z,10.14
2024-03-07T14:08:24.898Z,10.01
2024-03-07T14:11:43.169Z,9.88
2024-03-07T14:14:38.345Z,9.81
2024-03-07T14:17:59.544Z,9.71
2024-03-07T14:21:18.254Z,9.55
2024-03-07T14:24:18.488Z,9.40
2024-03-07T14:27:20.485Z,9.37
2024-03-07T14:30:00.961Z,9.39
2024-03-07T14:32:32.305Z,9.41
2024-03-07T14:35:12.150Z,9.48
2024-03-07T14:37:52.009Z,9.51
2024-03-07T14:40:25.926Z,9.54
2024-03-07T14:43:00.605Z,9.57
2024-03-07T14:45:36.023Z,9.67
2024-03-07T14:48:10.957Z,9.78
2024-03-07T14:50:44.116Z,9.89
2024-03-07T14:53:18.025Z,10.06
2024-03-07T14:55:49.032Z,10.19
2024-03-07T14:58:21.162Z,10.22
2024-03-07T15:00:57.916Z,10.19
2024-03-07T15:03:30.924Z,10.07
2024-03-07T15:06:03.969Z,9.97
2024-03-07T15:08:34.844Z,9.95
2024-03-07T15:11:14.922Z,9.98
2024-03-07T15:13:46.992Z,10.02
2024-03-07T15:16:29.209Z,10.06
2024-03-07T15:19:04.026Z,10.09
2024-03-07T15:21:34.510Z,10.09
2024-03-07T15:24:06.158Z,10.05
2024-03-07T15:26:36.920Z,9.98
2024-03-07T15:29:08.207Z,9.87
2024-03-07T15:31:38.567Z,9.75
2024-03-07T15:34:10.689Z,9.64
2024-03-07T15:36:42.298Z,9.47
2024-03-07T15:39:21.452Z,9.29
2024-03-07T15:41:52.209Z,9.11
2024-03-07T15:44:22.659Z,8.97
2024-03-07T15:46:53.047Z,8.86
2024-03-07T15:49:23.392Z,8.74
2024-03-07T15:51:53.905Z,8.64
2024-03-07T15:54:25.031Z,8.55
2024-03-07T15:56:55.438Z,8.48
2024-03-07T15:59:25.822Z,8.40
2024-03-07T16:01:56.143Z,8.41
2024-03-07T16:04:26.473Z,8.38
2024-03-07T16:06:56.991Z,8.32
2024-03-07T16:09:27.540Z,8.26
2024-03-07T16:11:58.775Z,8.19
2024-03-07T16:14:29.363Z,8.12
2024-03-07T16:16:59.759Z,8.07
2024-03-07T16:19:30.192Z,8.01
2024-03-07T16:22:03.442Z,7.95
2024-03-07T16:24:37.593Z,7.88
2024-03-07T16:27:08.608Z,7.79
2024-03-07T16:29:39.536Z,7.71
2024-03-07T16:32:12.956Z,7.64
2024-03-07T16:34:44.092Z,7.57
2024-03-07T16:37:15.062Z,7.48
2024-03-07T16:39:45.902Z,7.40
2024-03-07T16:42:16.767Z,7.31
2024-03-07T16:44:47.099Z,7.24
2024-03-07T16:47:17.698Z,7.16
2024-03-07T16:49:50.398Z,7.09
2024-03-07T16:52:20.879Z,7.01
2024-03-07T16:54:51.745Z,6.93
2024-03-07T16:57:22.144Z,6.83
2024-03-07T16:59:52.597Z,6.74
2024-03-07T17:02:27.296Z,6.66
2024-03-07T17:04:59.230Z,6.57
2024-03-07T17:07:31.618Z,6.48
2024-03-07T17:10:02.432Z,6.40
2024-03-07T17:12:32.847Z,6.33
2024-03-07T17:15:03.340Z,6.26
2024-03-07T17:17:40.312Z,6.19
2024-03-07T17:20:12.475Z,6.09
2024-03-07T17:22:43.140Z,6.02
2024-03-07T17:25:17.437Z,5.96
2024-03-07T17:27:50.772Z,5.88
2024-03-07T17:30:22.906Z,5.82
2024-03-07T17:32:53.410Z,5.76
2024-03-07T17:35:23.939Z,5.71
2024-03-07T17:37:54.780Z,5.64
2024-03-07T17:40:27.836Z,5.57
2024-03-07T17:43:00.351Z,5.52
2024-03-07T17:45:36.424Z,5.45
2024-03-07T17:48:11.642Z,5.40
2024-03-07T17:50:43.535Z,5.35
2024-03-07T17:53:15.096Z,5.28
2024-03-07T17:55:46.371Z,5.24
2024-03-07T17:58:21.110Z,5.19
2024-03-07T18:00:51.943Z,5.13
2024-03-07T18:03:23.352Z,5.08
2024-03-07T18:05:54.628Z,5.04
2024-03-07T18:08:35.935Z,4.99
2024-03-07T18:11:14.780Z,4.96
2024-03-07T18:13:47.749Z,4.91
2024-03-07T18:16:18.716Z,4.89
2024-03-07T18:18:54.285Z,4.85
2024-03-07T18:21:24.728Z,4.82
2024-03-07T18:23:57.537Z,4.79
2024-03-07T18:26:28.068Z,4.77
2024-03-07T18:28:58.791Z,4.73
2024-03-07T18:31:31.297Z,4.69
2024-03-07T18:34:02.960Z,4.66
2024-03-07T18:36:37.252Z,4.63
2024-03-07T18:39:24.055Z,4.61
2024-03-07T18:41:58.178Z,4.58
2024-03-07T18:44:31.631Z,4.55
2024-03-07T18:47:06.946Z,4.54
2024-03-07T18:49:39.694Z,4.51
2024-03-07T18:52:12.261Z,4.47
2024-03-07T18:54:43.104Z,4.41
2024-03-07T18:57:13.569Z,4.36
2024-03-07T18:59:46.506Z,4.30
2024-03-07T19:02:16.999Z,4.28
2024-03-07T19:04:47.309Z,4.22
2024-03-07T19:07:17.705Z,4.19
2024-03-07T19:09:48.100Z,4.15
2024-03-07T19:12:18.555Z,4.09
2024-03-07T19:15:00.869Z,4.05
2024-03-07T19:17:31.823Z,4.06
2024-03-07T19:20:12.333Z,4.07
2024-03-07T19:22:42.619Z,4.05
2024-03-07T19:25:18.529Z,4.06
2024-03-07T19:27:50.427Z,4.03
2024-03-07T19:30:24.594Z,4.02
2024-03-07T19:32:56.464Z,3.99
2024-03-07T19:35:27.000Z,3.95
2024-03-07T19:37:57.517Z,3.91
2024-03-07T19:40:27.936Z,3.86
2024-03-07T19:42:58.344Z,3.81
2024-03-07T19:45:28.740Z,3.76
2024-03-07T19:48:00.871Z,3.72
2024-03-07T19:50:32.756Z,3.67
2024-03-07T19:53:03.191Z,3.63
2024-03-07T19:55:33.481Z,3.60
2024-03-07T19:58:03.985Z,3.55
2024-03-07T20:00:34.324Z,3.50
2024-03-07T20:03:08.127Z,3.44
2024-03-07T20:05:38.674Z,3.37
2024-03-07T20:08:15.497Z,3.32
2024-03-07T20:10:49.209Z,3.28
2024-03-07T20:13:20.730Z,3.22
2024-03-07T20:15:51.400Z,3.19
2024-03-07T20:18:25.200Z,3.16
2024-03-07T20:20:56.426Z,3.11
2024-03-07T20:23:28.690Z,3.07
2024-03-07T20:26:00.059Z,3.08
2024-03-07T20:28:30.424Z,3.07
2024-03-07T20:31:01.710Z,3.04
2024-03-07T20:33:32.206Z,3.03
2024-03-07T20:36:03.991Z,3.01
2024-03-07T20:38:36.030Z,2.99
2024-03-07T20:41:07.022Z,2.97
2024-03-07T20:43:38.043Z,2.96
2024-03-07T20:46:08.591Z,2.94
2024-03-07T20:48:39.103Z,2.93
2024-03-07T20:51:11.665Z,2.91
2024-03-07T20:53:48.020Z,2.90
2024-03-07T20:56:18.630Z,2.89
2024-03-07T20:58:49.256Z,2.87
2024-03-07T21:01:21.492Z,2.85
2024-03-07T21:03:55.509Z,2.83
2024-03-07T21:06:28.507Z,2.80
2024-03-07T21:08:58.945Z,2.76
2024-03-07T21:11:30.702Z,2.74
2024-03-07T21:14:01.375Z,2.70
2024-03-07T21:16:31.735Z,2.68
2024-03-07T21:19:02.451Z,2.65
2024-03-07T21:21:34.421Z,2.62
2024-03-07T21:24:05.899Z,2.60
2024-03-07T21:26:36.361Z,2.59
2024-03-07T21:29:06.694Z,2.56
2024-03-07T21:31:36.987Z,2.51
2024-03-07T21:34:08.054Z,2.49
2024-03-07T21:36:40.768Z,2.47
2024-03-07T21:39:11.372Z,2.46
2024-03-07T21:41:44.308Z,2.43
2024-03-07T21:44:15.136Z,2.41
2024-03-07T21:46:45.740Z,2.38
2024-03-07T21:49:16.256Z,2.35
2024-03-07T21:51:51.555Z,2.31
2024-03-07T21:54:23.505Z,2.28
2024-03-07T21:56:53.976Z,2.23
2024-03-07T21:59:24.501Z,2.20
2024-03-07T22:01:55.072Z,2.18
2024-03-07T22:04:25.667Z,2.18
2024-03-07T22:06:56.088Z,2.18
2024-03-07T22:09:27.640Z,2.18
2024-03-07T22:11:59.107Z,2.16
2024-03-07T22:14:30.746Z,2.14
2024-03-07T22:17:05.907Z,2.13
2024-03-07T22:19:38.807Z,2.12
2024-03-07T22:22:09.139Z,2.11
2024-03-07T22:24:39.771Z,2.12
2024-03-07T22:27:11.234Z,2.11
2024-03-07T22:29:42.148Z,2.11
2024-03-07T22:32:12.765Z,2.10
2024-03-07T22:34:43.784Z,2.11
2024-03-07T22:37:14.915Z,2.11
2024-03-07T22:39:48.788Z,2.11
2024-03-07T22:42:19.183Z,2.11
2024-03-07T22:44:49.541Z,2.11
2024-03-07T22:47:22.739Z,2.10
2024-03-07T22:49:56.246Z,2.10
2024-03-07T22:52:30.322Z,2.10
2024-03-07T22:55:00.746Z,2.09
2024-03-07T22:57:31.167Z,2.08
2024-03-07T23:00:01.735Z,2.07
2024-03-07T23:02:32.654Z,2.05
2024-03-07T23:05:05.419Z,2.03
2024-03-07T23:07:35.763Z,2.02
2024-03-07T23:10:07.678Z,2.00
2024-03-07T23:12:39.091Z,1.99
2024-03-07T23:15:11.594Z,1.97
2024-03-07T23:17:45.467Z,1.94
2024-03-07T23:20:20.988Z,1.90
2024-03-07T23:22:53.173Z,1.89
2024-03-07T23:25:24.643Z,1.85
2024-03-07T23:27:56.519Z,1.80
2024-03-07T23:30:28.460Z,1.76
2024-03-07T23:33:00.173Z,1.73
2024-03-07T23:35:30.786Z,1.72
2024-03-07T23:38:01.492Z,1.70
2024-03-07T23:40:31.873Z,1.68
2024-03-07T23:43:02.376Z,1.64
2024-03-07T23:45:32.855Z,1.62
2024-03-07T23:48:04.934Z,1.59
2024-03-07T23:50:35.548Z,1.53
2024-03-07T23:53:07.855Z,1.48
2024-03-07T23:55:38.561Z,1.40
2024-03-07T23:58:08.927Z,1.35
